« Back
NWS Peachtree City, Ga » Text Product » ATL Terminal Aerodrome Forecast


Printer-friendly Version
Current Version              Previous Versions:   1  2  3  4  5  6  7  8  9  

Terminal Aerodrome Forecast

701
FTUS42 KFFC 092338
TAFATL
TAF
KATL 092338Z 1000/1106 28012G22KT P6SM SCT030 OVC060
      TEMPO 1000/1004 6SM -SHSN BKN030
     FM100400 30012G18KT P6SM VCSH BKN025
     FM101300 29012G22KT P6SM SCT025 OVC050
     FM101500 29015G25KT P6SM OVC050
     FM101800 29015G25KT P6SM SCT060
     FM110000 30011KT P6SM SCT100=

USA.gov is the U.S. government's official web portal to all federal, state and local government web resources and services.